Time;durP1;ratioP1;P1;durP2;ratioP2;P2;SDS_P1;SDS_P2;PMS_P1;PMS_P2;Temp;Humidity;BMP_temperature;BMP_pressure;BME280_temperature;BME280_humidity;BME280_pressure;Samples;Min_cycle;Max_cycle;Signal;HPM_P1;HPM_P2
2022/04/30 00:01:17;;;;;;;45.80;17.20;;;;;;;5.45;61.56;101202.35;105462;1274;25266;-64
2022/04/30 00:03:48;;;;;;;44.80;15.30;;;;;;;5.41;61.48;101195.70;105391;1277;24403;-65
2022/04/30 00:06:20;;;;;;;36.20;15.30;;;;;;;5.39;61.63;101196.85;105512;1277;22989;-65
2022/04/30 00:08:52;;;;;;;39.40;15.90;;;;;;;5.35;61.83;101199.52;105379;1274;22687;-65
2022/04/30 00:11:23;;;;;;;37.20;15.20;;;;;;;5.28;62.26;101195.04;105447;1274;25378;-65
2022/04/30 00:13:54;;;;;;;41.50;15.20;;;;;;;5.19;62.41;101197.25;105468;1275;22600;-65
2022/04/30 00:16:30;;;;;;;39.60;15.30;;;;;;;5.14;62.56;101200.97;105403;1276;22535;-65
2022/04/30 00:19:02;;;;;;;41.40;12.90;;;;;;;5.10;62.74;101202.66;105421;1276;24246;-65
2022/04/30 00:21:33;;;;;;;33.80;14.90;;;;;;;5.09;62.40;101203.48;105436;1275;25268;-65
2022/04/30 00:24:06;;;;;;;34.90;13.60;;;;;;;5.11;62.49;101198.16;105411;1276;25258;-64
2022/04/30 00:26:37;;;;;;;39.50;15.00;;;;;;;5.10;63.09;101200.86;105523;1275;24300;-64
2022/04/30 00:29:09;;;;;;;39.90;15.10;;;;;;;5.04;63.48;101201.19;105474;1276;22648;-65
2022/04/30 00:31:41;;;;;;;36.00;14.90;;;;;;;4.97;63.57;101201.69;105433;1276;24953;-65
2022/04/30 00:34:13;;;;;;;41.30;15.10;;;;;;;4.91;63.36;101202.40;105562;1276;25767;-65
2022/04/30 00:36:44;;;;;;;38.40;16.10;;;;;;;4.91;63.21;101200.34;105578;1276;22719;-65
2022/04/30 00:39:16;;;;;;;44.20;16.70;;;;;;;4.91;63.37;101201.52;105430;1276;25398;-65
2022/04/30 00:41:50;;;;;;;38.90;13.60;;;;;;;4.92;63.24;101203.18;105606;1275;25378;-65
2022/04/30 00:44:22;;;;;;;41.50;15.60;;;;;;;4.93;63.10;101203.80;105663;1274;23070;-65
2022/04/30 00:46:53;;;;;;;39.70;14.70;;;;;;;4.94;63.14;101203.79;105534;1276;24242;-65
2022/04/30 00:49:25;;;;;;;36.90;15.80;;;;;;;4.95;63.32;101201.55;105690;1276;22554;-65
2022/04/30 00:51:59;;;;;;;36.60;15.40;;;;;;;4.96;63.41;101199.17;105491;1276;26266;-65
2022/04/30 00:54:37;;;;;;;41.50;16.70;;;;;;;4.95;63.67;101198.63;105515;1275;25360;-64
2022/04/30 00:57:14;;;;;;;41.70;18.50;;;;;;;4.93;64.03;101194.08;105391;1275;22653;-64
2022/04/30 00:59:51;;;;;;;41.20;18.30;;;;;;;4.90;63.74;101198.87;105459;1275;22719;-65
2022/04/30 01:02:28;;;;;;;45.70;18.30;;;;;;;4.89;63.96;101195.23;105446;1274;23013;-65
2022/04/30 01:05:02;;;;;;;38.80;17.50;;;;;;;4.89;64.00;101192.55;105382;1276;25310;-65
2022/04/30 01:07:36;;;;;;;44.70;18.70;;;;;;;4.88;64.16;101190.29;105507;1276;22650;-65
2022/04/30 01:10:10;;;;;;;46.90;18.90;;;;;;;4.87;63.96;101192.75;105539;1276;22547;-65
2022/04/30 01:12:43;;;;;;;40.20;17.70;;;;;;;4.86;64.38;101193.00;105639;1276;22587;-65
2022/04/30 01:15:17;;;;;;;44.80;17.10;;;;;;;4.84;64.38;101192.54;105371;1276;22714;-64
2022/04/30 01:17:50;;;;;;;40.50;15.80;;;;;;;4.83;64.54;101188.39;105476;1274;22589;-65
2022/04/30 01:20:21;;;;;;;41.60;17.30;;;;;;;4.79;64.68;101184.09;105556;1274;22559;-65
2022/04/30 01:23:07;;;;;;;41.20;16.00;;;;;;;4.78;64.70;101185.13;105462;1276;25371;-65
2022/04/30 01:25:42;;;;;;;40.40;15.30;;;;;;;4.75;64.74;101186.42;105560;1276;24273;-66
2022/04/30 01:28:15;;;;;;;38.50;15.50;;;;;;;4.74;64.62;101185.66;105406;1276;22557;-62
2022/04/30 01:30:47;;;;;;;42.50;16.90;;;;;;;4.72;64.65;101179.75;105365;1276;22557;-64
2022/04/30 01:39:02;;;;;;;34.50;14.40;;;;;;;4.62;65.20;101180.77;105421;1274;22569;-65
2022/04/30 01:41:35;;;;;;;34.10;13.90;;;;;;;4.61;65.15;101180.15;105484;1274;22563;-65
2022/04/30 01:44:09;;;;;;;32.20;13.70;;;;;;;4.60;65.14;101184.35;105457;1276;24308;-66
2022/04/30 01:46:41;;;;;;;35.00;14.40;;;;;;;4.58;65.48;101178.69;105459;1276;22569;-65
2022/04/30 01:49:16;;;;;;;33.70;14.00;;;;;;;4.55;65.45;101183.30;105483;1276;24934;-66
2022/04/30 01:51:53;;;;;;;31.30;13.00;;;;;;;4.52;65.46;101184.38;105497;1276;22588;-65
2022/04/30 01:54:25;;;;;;;34.00;15.20;;;;;;;4.49;65.48;101184.10;105341;1274;24438;-66
2022/04/30 01:56:56;;;;;;;30.40;13.30;;;;;;;4.45;65.75;101182.27;105479;1276;25269;-64
2022/04/30 01:59:28;;;;;;;33.40;13.10;;;;;;;4.41;65.59;101182.08;105439;1276;22563;-65
2022/04/30 02:02:00;;;;;;;34.60;13.00;;;;;;;4.40;65.51;101181.30;105543;1276;24380;-65
2022/04/30 02:04:32;;;;;;;32.40;12.90;;;;;;;4.40;65.38;101180.02;105335;1276;22535;-65
2022/04/30 02:07:04;;;;;;;33.20;14.50;;;;;;;4.40;65.74;101171.90;105380;1274;22614;-65
2022/04/30 02:09:36;;;;;;;31.90;11.80;;;;;;;4.34;66.63;101171.50;105561;1274;22545;-65
2022/04/30 02:12:10;;;;;;;31.30;11.50;;;;;;;4.27;66.74;101171.82;105449;1274;22559;-64
2022/04/30 02:14:46;;;;;;;31.70;12.60;;;;;;;4.26;66.60;101174.22;105541;1276;25620;-65
2022/04/30 02:17:19;;;;;;;34.90;14.70;;;;;;;4.24;66.38;101172.73;105514;1275;24310;-66
2022/04/30 02:22:42;;;;;;;26.80;11.90;;;;;;;4.25;66.21;101163.95;105514;1276;23016;-66
2022/04/30 02:25:15;;;;;;;34.50;12.60;;;;;;;4.26;66.38;101163.55;105382;1276;26724;-67
2022/04/30 02:27:48;;;;;;;26.70;11.50;;;;;;;4.25;66.58;101165.46;105451;1276;22753;-65
2022/04/30 02:30:22;;;;;;;33.90;12.90;;;;;;;4.22;66.67;101162.66;105481;1276;22629;-65
2022/04/30 02:32:55;;;;;;;32.10;12.00;;;;;;;4.19;66.69;101154.95;105421;1276;25333;-65
2022/04/30 02:35:31;;;;;;;30.20;13.30;;;;;;;4.18;66.83;101154.15;105392;1276;22540;-65
2022/04/30 02:38:05;;;;;;;31.00;12.30;;;;;;;4.17;67.07;101151.02;105456;1276;22566;-65
2022/04/30 02:40:41;;;;;;;32.90;13.50;;;;;;;4.17;67.20;101154.66;105483;1274;24441;-65
2022/04/30 02:43:15;;;;;;;31.10;12.60;;;;;;;4.16;66.73;101152.77;105676;1274;22552;-65
2022/04/30 02:45:48;;;;;;;30.70;13.20;;;;;;;4.16;67.08;101150.41;105370;1276;25967;-65
2022/04/30 02:48:20;;;;;;;34.60;15.30;;;;;;;4.14;67.29;101146.33;105489;1276;25634;-64
2022/04/30 02:50:58;;;;;;;35.10;15.50;;;;;;;4.12;67.62;101143.67;105366;1275;24385;-64
2022/04/30 02:53:29;;;;;;;35.30;16.20;;;;;;;4.09;67.59;101142.36;105350;1274;24325;-64
2022/04/30 02:56:02;;;;;;;42.80;17.50;;;;;;;4.06;67.72;101146.34;105313;1276;22575;-65
2022/04/30 03:01:24;;;;;;;42.80;18.40;;;;;;;4.00;67.79;101149.16;105343;1274;22578;-64
2022/04/30 03:03:56;;;;;;;50.30;17.70;;;;;;;3.95;67.96;101146.55;105500;1276;25923;-64
2022/04/30 03:06:27;;;;;;;42.80;18.20;;;;;;;3.91;67.95;101145.09;105313;1275;22550;-64
2022/04/30 03:08:59;;;;;;;41.50;16.60;;;;;;;3.88;68.00;101143.72;105434;1274;22539;-64
2022/04/30 03:11:31;;;;;;;37.10;16.30;;;;;;;3.85;68.02;101140.10;105403;1274;24277;-64
2022/04/30 03:14:02;;;;;;;39.80;15.70;;;;;;;3.85;68.02;101134.74;105419;1276;26002;-64
2022/04/30 03:22:12;;;;;;;35.30;14.40;;;;;;;3.79;68.42;101126.29;105247;1276;22541;-64
2022/04/30 03:24:44;;;;;;;34.00;14.80;;;;;;;3.76;68.54;101125.77;105468;1274;24446;-64
2022/04/30 03:27:18;;;;;;;34.90;15.50;;;;;;;3.77;68.49;101124.81;105455;1274;25261;-63
2022/04/30 03:29:51;;;;;;;32.70;13.20;;;;;;;3.78;68.59;101121.34;105379;1276;24337;-63
2022/04/30 03:32:24;;;;;;;33.50;12.90;;;;;;;3.77;68.81;101126.39;105479;1274;26512;-64
2022/04/30 03:34:55;;;;;;;34.20;14.30;;;;;;;3.77;68.42;101125.52;105536;1275;25373;-63
2022/04/30 03:37:27;;;;;;;30.30;11.80;;;;;;;3.77;68.65;101123.78;105323;1275;24379;-64
2022/04/30 03:39:59;;;;;;;30.80;13.20;;;;;;;3.79;68.48;101126.67;105460;1276;23056;-63
2022/04/30 03:42:33;;;;;;;35.50;14.10;;;;;;;3.80;68.40;101120.98;105602;1276;24333;-63
2022/04/30 03:45:07;;;;;;;31.60;11.70;;;;;;;3.83;68.88;101116.86;105444;1275;24264;-64
2022/04/30 03:47:38;;;;;;;28.20;10.30;;;;;;;3.82;69.55;101117.73;105441;1275;22622;-64
2022/04/30 03:50:12;;;;;;;26.90;11.40;;;;;;;3.80;69.73;101120.52;105493;1276;22717;-63
2022/04/30 03:52:44;;;;;;;29.00;11.90;;;;;;;3.78;69.91;101120.05;105548;1273;25379;-63
2022/04/30 03:55:18;;;;;;;26.50;10.20;;;;;;;3.79;69.88;101118.16;105519;1274;22533;-63
2022/04/30 03:57:49;;;;;;;25.30;10.10;;;;;;;3.81;69.95;101120.75;105588;1274;22580;-64
2022/04/30 04:00:22;;;;;;;26.70;11.30;;;;;;;3.82;70.43;101116.00;105475;1274;25236;-63
2022/04/30 04:02:57;;;;;;;25.20;10.20;;;;;;;3.82;70.57;101118.75;105419;1276;25257;-64
2022/04/30 04:05:33;;;;;;;29.50;12.40;;;;;;;3.83;70.60;101118.27;105306;1276;24392;-64
2022/04/30 04:08:11;;;;;;;29.00;10.90;;;;;;;3.82;70.75;101116.62;105441;1276;22558;-63
2022/04/30 04:10:43;;;;;;;26.10;11.10;;;;;;;3.83;70.74;101118.03;105312;1275;22580;-63
2022/04/30 04:18:55;;;;;;;27.30;11.40;;;;;;;3.90;71.04;101112.43;105368;1276;22598;-63
2022/04/30 04:21:26;;;;;;;26.20;11.90;;;;;;;3.91;71.55;101119.36;105331;1276;24099;-63
2022/04/30 04:26:48;;;;;;;28.50;12.20;;;;;;;3.92;71.68;101120.85;105473;1274;23773;-63
2022/04/30 04:29:20;;;;;;;30.20;11.40;;;;;;;3.94;71.70;101126.52;105505;1274;25261;-63
2022/04/30 04:31:52;;;;;;;29.60;12.00;;;;;;;3.97;71.91;101126.39;105489;1275;22554;-63
2022/04/30 04:34:23;;;;;;;26.00;10.80;;;;;;;4.00;72.00;101126.44;105450;1274;22561;-63
2022/04/30 04:36:54;;;;;;;27.50;11.70;;;;;;;4.02;72.09;101133.20;105459;1274;24767;-63
2022/04/30 04:39:26;;;;;;;28.80;11.40;;;;;;;4.06;72.99;101131.50;105552;1274;24413;-63
2022/04/30 04:41:57;;;;;;;26.80;10.20;;;;;;;4.08;72.60;101130.69;105491;1275;24340;-63
2022/04/30 04:44:29;;;;;;;28.70;11.50;;;;;;;4.12;72.65;101126.14;105490;1273;25374;-63
2022/04/30 04:47:00;;;;;;;31.70;12.30;;;;;;;4.15;72.77;101127.28;105640;1274;25213;-63
2022/04/30 04:49:35;;;;;;;27.90;11.80;;;;;;;4.17;72.63;101133.27;109278;1275;25224;-63
2022/04/30 04:52:09;;;;;;;34.50;15.80;;;;;;;4.22;72.74;101131.84;105548;1276;25475;-63
2022/04/30 04:54:41;;;;;;;35.70;17.60;;;;;;;4.25;72.94;101128.66;105458;1276;22573;-63
2022/04/30 04:57:13;;;;;;;38.50;17.10;;;;;;;4.29;73.12;101128.29;105526;1276;22619;-63
2022/04/30 04:59:47;;;;;;;32.40;15.40;;;;;;;4.33;73.19;101127.83;105427;1276;22810;-63
2022/04/30 05:02:19;;;;;;;30.90;14.30;;;;;;;4.37;73.20;101119.95;105431;1276;22570;-63
2022/04/30 05:04:50;;;;;;;34.80;15.00;;;;;;;4.41;73.18;101123.54;105453;1275;22638;-63
2022/04/30 05:07:22;;;;;;;27.90;14.00;;;;;;;4.46;73.21;101125.29;105502;1274;25259;-63
2022/04/30 05:09:53;;;;;;;30.90;15.00;;;;;;;4.50;73.62;101126.65;105453;1276;26223;-62
2022/04/30 05:12:25;;;;;;;32.30;14.10;;;;;;;4.54;73.61;101127.08;105515;1275;22706;-63
2022/04/30 05:14:57;;;;;;;38.50;16.20;;;;;;;4.57;73.78;101129.00;105530;1276;23019;-63
2022/04/30 05:17:29;;;;;;;34.00;15.20;;;;;;;4.61;73.67;101124.44;105565;1274;25259;-63
2022/04/30 05:20:01;;;;;;;39.90;18.70;;;;;;;4.66;73.80;101123.58;105561;1274;25266;-63
2022/04/30 05:22:33;;;;;;;41.00;17.30;;;;;;;4.71;74.02;101123.58;105480;1274;22557;-63
2022/04/30 05:25:05;;;;;;;36.70;16.60;;;;;;;4.75;74.22;101122.02;105642;1274;24215;-62
2022/04/30 05:27:37;;;;;;;35.80;17.40;;;;;;;4.80;74.10;101127.02;105545;1276;25268;-63
2022/04/30 05:30:11;;;;;;;38.80;18.80;;;;;;;4.84;74.31;101124.49;105520;1276;25764;-63
2022/04/30 05:32:43;;;;;;;38.60;17.20;;;;;;;4.89;74.45;101126.14;105460;1276;22580;-62
2022/04/30 05:35:15;;;;;;;39.50;17.90;;;;;;;4.94;74.20;101128.29;105476;1276;25344;-64
2022/04/30 05:37:47;;;;;;;39.30;17.60;;;;;;;4.99;74.01;101127.97;105468;1274;22604;-63
2022/04/30 05:40:19;;;;;;;43.40;18.80;;;;;;;5.05;74.25;101126.77;105519;1275;22559;-63
2022/04/30 05:42:50;;;;;;;40.50;18.00;;;;;;;5.11;74.36;101131.10;105521;1276;22537;-62
2022/04/30 05:45:23;;;;;;;52.50;26.00;;;;;;;5.17;74.32;101134.96;105277;1275;22535;-64
2022/04/30 05:47:55;;;;;;;77.60;38.10;;;;;;;5.22;74.82;101137.71;105509;1275;24237;-63
2022/04/30 05:50:27;;;;;;;76.10;39.80;;;;;;;5.29;75.10;101139.89;105443;1274;22547;-64
2022/04/30 05:52:59;;;;;;;113.40;55.20;;;;;;;5.36;75.09;101145.48;105739;1274;24456;-63
2022/04/30 05:55:31;;;;;;;75.90;35.40;;;;;;;5.42;75.23;101146.71;108524;1275;24513;-64
2022/04/30 05:58:02;;;;;;;92.70;40.90;;;;;;;5.48;75.20;101145.02;105793;1275;25440;-63
2022/04/30 06:00:34;;;;;;;90.50;39.10;;;;;;;5.56;75.01;101140.45;105586;1275;26587;-63
2022/04/30 06:03:10;;;;;;;84.40;37.00;;;;;;;5.65;75.24;101139.08;105393;1276;22550;-63
2022/04/30 06:05:41;;;;;;;77.60;34.70;;;;;;;5.73;75.21;101134.74;105580;1276;26222;-61
2022/04/30 06:08:12;;;;;;;64.60;29.00;;;;;;;5.82;75.12;101137.45;105321;1276;22551;-63
2022/04/30 06:10:44;;;;;;;66.10;30.30;;;;;;;5.90;75.01;101138.65;105505;1276;25378;-63
2022/04/30 06:13:18;;;;;;;59.50;26.30;;;;;;;5.99;75.01;101140.54;106865;1275;24275;-63
2022/04/30 06:15:49;;;;;;;58.70;26.90;;;;;;;6.07;74.89;101141.73;105642;1276;23190;-63
2022/04/30 06:18:21;;;;;;;64.60;29.10;;;;;;;6.14;74.63;101139.98;105447;1275;22544;-63
2022/04/30 06:20:52;;;;;;;52.20;23.50;;;;;;;6.23;74.60;101135.92;105491;1275;22554;-62
2022/04/30 06:23:24;;;;;;;48.80;22.80;;;;;;;6.32;74.62;101135.80;105672;1275;22833;-64
2022/04/30 06:25:58;;;;;;;46.40;21.20;;;;;;;6.41;74.53;101136.86;105512;1275;22642;-63
2022/04/30 06:28:29;;;;;;;39.10;17.50;;;;;;;6.50;74.67;101136.20;105667;1276;24310;-62
2022/04/30 06:31:03;;;;;;;43.80;19.00;;;;;;;6.62;74.59;101139.04;105457;1276;24242;-63
2022/04/30 06:33:35;;;;;;;44.90;19.00;;;;;;;6.73;74.56;101140.62;105619;1276;22557;-62
2022/04/30 06:36:07;;;;;;;38.00;17.40;;;;;;;6.83;74.68;101139.66;105516;1276;22798;-62
2022/04/30 06:38:39;;;;;;;48.40;22.30;;;;;;;6.95;74.38;101136.45;105469;1274;22993;-63
2022/04/30 06:41:11;;;;;;;43.70;19.10;;;;;;;7.07;74.67;101133.69;105487;1275;25272;-62
2022/04/30 06:43:42;;;;;;;41.30;18.00;;;;;;;7.21;74.51;101139.85;105455;1276;22556;-62
2022/04/30 06:46:14;;;;;;;43.50;16.80;;;;;;;7.35;74.24;101143.01;105508;1276;24000;-62
2022/04/30 06:48:45;;;;;;;35.20;15.90;;;;;;;7.49;74.00;101144.16;105719;1275;24270;-62
2022/04/30 06:51:17;;;;;;;47.00;20.50;;;;;;;7.63;73.85;101144.71;105541;1276;25402;-63
2022/04/30 06:59:31;;;;;;;39.90;17.20;;;;;;;8.11;73.54;101146.02;105422;1276;22706;-62
2022/04/30 07:02:05;;;;;;;36.60;14.60;;;;;;;8.26;73.39;101143.95;105535;1275;22559;-63
2022/04/30 07:04:38;;;;;;;45.80;18.90;;;;;;;8.40;73.15;101147.59;105473;1275;22539;-62
2022/04/30 07:07:10;;;;;;;34.80;15.60;;;;;;;8.54;72.87;101151.02;105539;1276;23223;-62
2022/04/30 07:09:42;;;;;;;32.50;13.80;;;;;;;8.67;72.63;101151.09;105456;1276;24333;-62
2022/04/30 07:12:14;;;;;;;34.40;15.10;;;;;;;8.79;72.53;101147.20;105484;1276;25533;-61
2022/04/30 07:14:48;;;;;;;40.40;15.30;;;;;;;8.92;72.35;101148.61;109516;1274;23234;-62
2022/04/30 07:17:22;;;;;;;30.70;14.00;;;;;;;9.05;72.12;101152.52;109482;1274;23036;-62
2022/04/30 07:19:53;;;;;;;37.30;14.00;;;;;;;9.17;71.57;101150.87;108395;1275;22574;-63
2022/04/30 07:22:25;;;;;;;34.10;14.00;;;;;;;9.28;71.23;101147.23;105536;1274;24282;-62
2022/04/30 07:24:57;;;;;;;34.20;14.60;;;;;;;9.41;71.13;101145.84;105842;1275;22721;-63
2022/04/30 07:27:28;;;;;;;34.60;16.00;;;;;;;9.56;71.10;101145.48;105688;1275;22534;-63
2022/04/30 07:30:01;;;;;;;28.80;13.70;;;;;;;9.71;71.10;101138.50;105530;1276;22567;-63
2022/04/30 07:32:33;;;;;;;30.40;12.90;;;;;;;9.89;70.71;101141.44;105576;1275;25551;-62
2022/04/30 07:35:05;;;;;;;33.10;12.00;;;;;;;10.05;70.26;101140.39;105696;1275;22550;-63
2022/04/30 07:37:37;;;;;;;28.30;12.50;;;;;;;10.21;69.92;101136.16;105580;1275;22576;-63
2022/04/30 07:40:11;;;;;;;28.30;11.90;;;;;;;10.39;69.80;101137.33;105714;1275;22563;-63
2022/04/30 07:42:42;;;;;;;26.30;10.90;;;;;;;10.58;69.53;101139.37;105599;1276;22708;-62
2022/04/30 07:45:16;;;;;;;30.30;11.50;;;;;;;10.77;68.89;101138.55;105603;1274;23194;-63
2022/04/30 07:47:48;;;;;;;32.10;11.90;;;;;;;10.94;68.63;101137.31;105583;1275;26583;-63
2022/04/30 07:50:21;;;;;;;30.30;13.00;;;;;;;11.11;68.22;101133.89;105657;1275;22979;-63
2022/04/30 07:52:53;;;;;;;29.80;11.40;;;;;;;11.31;68.31;101133.47;105613;1276;22645;-63
2022/04/30 07:55:28;;;;;;;27.70;10.30;;;;;;;11.50;67.68;101138.76;105536;1276;22687;-63
2022/04/30 07:57:59;;;;;;;26.40;9.90;;;;;;;11.68;66.54;101134.58;105499;1276;24287;-63
2022/04/30 08:00:31;;;;;;;26.10;10.10;;;;;;;11.83;66.56;101139.66;105714;1274;25324;-63
2022/04/30 08:03:03;;;;;;;22.60;9.20;;;;;;;12.01;65.74;101133.69;105627;1276;22552;-63
2022/04/30 08:05:35;;;;;;;24.10;9.40;;;;;;;12.18;64.80;101134.33;105584;1275;22562;-62
2022/04/30 08:08:07;;;;;;;21.80;9.30;;;;;;;12.34;64.21;101133.30;105552;1275;22576;-63
2022/04/30 08:10:39;;;;;;;22.30;7.70;;;;;;;12.46;63.74;101132.48;105554;1276;22538;-62
2022/04/30 08:13:11;;;;;;;23.60;8.50;;;;;;;12.56;63.10;101133.06;105596;1276;24330;-62
2022/04/30 08:15:43;;;;;;;22.80;8.30;;;;;;;12.64;62.93;101134.42;105580;1274;25341;-62
2022/04/30 08:18:15;;;;;;;24.20;8.90;;;;;;;12.75;62.71;101135.45;105542;1275;23920;-62
2022/04/30 08:20:49;;;;;;;22.70;8.40;;;;;;;12.87;62.30;101140.14;105579;1276;24333;-63
2022/04/30 08:23:22;;;;;;;17.70;6.30;;;;;;;13.00;61.59;101138.63;105892;1274;22549;-63
2022/04/30 08:25:54;;;;;;;16.60;5.30;;;;;;;13.14;60.30;101138.88;105516;1276;22664;-63
2022/04/30 08:28:28;;;;;;;18.70;5.70;;;;;;;13.29;59.79;101138.44;105560;1276;22660;-63
2022/04/30 08:30:59;;;;;;;18.40;5.50;;;;;;;13.42;59.86;101141.95;105554;1276;25412;-63
2022/04/30 08:33:31;;;;;;;15.70;5.00;;;;;;;13.51;59.11;101138.71;105776;1274;22542;-64
2022/04/30 08:36:03;;;;;;;18.40;6.10;;;;;;;13.60;58.42;101134.30;105583;1274;22623;-64
2022/04/30 08:38:35;;;;;;;17.70;5.90;;;;;;;13.68;58.10;101134.03;105597;1276;23044;-63
2022/04/30 08:41:11;;;;;;;16.10;5.50;;;;;;;13.80;57.93;101133.50;105613;1276;22625;-63
2022/04/30 08:43:47;;;;;;;18.20;6.20;;;;;;;13.90;57.65;101131.52;105656;1275;24308;-63
2022/04/30 08:46:22;;;;;;;16.90;5.50;;;;;;;14.01;57.39;101128.95;105529;1275;22534;-64
2022/04/30 08:48:55;;;;;;;18.00;5.70;;;;;;;14.09;56.50;101122.68;105606;1276;24327;-63
2022/04/30 08:51:27;;;;;;;15.40;4.40;;;;;;;14.20;56.35;101125.90;105634;1276;23007;-63
2022/04/30 08:53:59;;;;;;;14.30;4.30;;;;;;;14.33;55.77;101122.49;105612;1276;26512;-63
2022/04/30 08:56:31;;;;;;;14.60;4.30;;;;;;;14.47;55.38;101120.38;105564;1276;25348;-63
2022/04/30 08:59:05;;;;;;;18.80;5.50;;;;;;;14.59;54.86;101119.68;105709;1276;24277;-63
2022/04/30 09:01:47;;;;;;;16.40;5.30;;;;;;;14.71;54.75;101119.91;105732;1276;22991;-63
2022/04/30 09:04:19;;;;;;;17.40;5.50;;;;;;;14.77;53.84;101117.88;105759;1276;22549;-64
2022/04/30 09:06:53;;;;;;;15.50;5.30;;;;;;;14.80;53.75;101115.21;105692;1276;22560;-64
2022/04/30 09:09:30;;;;;;;16.10;4.80;;;;;;;14.88;53.38;101112.99;105671;1274;22560;-63
2022/04/30 09:12:11;;;;;;;19.90;7.50;;;;;;;14.95;52.10;101110.27;105707;1276;22534;-64
2022/04/30 09:14:43;;;;;;;18.60;6.00;;;;;;;15.07;52.65;101109.90;105658;1275;24378;-63
2022/04/30 09:17:17;;;;;;;15.10;4.60;;;;;;;15.18;51.79;101110.66;105561;1276;23786;-64
2022/04/30 09:19:53;;;;;;;13.70;3.70;;;;;;;15.30;51.50;101107.30;105547;1276;23321;-64
2022/04/30 09:22:33;;;;;;;16.60;4.00;;;;;;;15.48;51.70;101103.98;105632;1276;24243;-64
2022/04/30 09:25:07;;;;;;;11.80;2.60;;;;;;;15.67;51.20;101098.75;105593;1276;24449;-64
2022/04/30 09:27:48;;;;;;;11.60;3.00;;;;;;;15.83;50.30;101097.55;105606;1276;22666;-63
2022/04/30 09:30:20;;;;;;;10.20;2.60;;;;;;;15.96;49.61;101093.85;105687;1276;24246;-64
2022/04/30 09:33:04;;;;;;;12.90;2.50;;;;;;;16.08;49.23;101094.52;105637;1275;22534;-64
2022/04/30 09:38:40;;;;;;;9.40;2.20;;;;;;;16.30;48.59;101099.17;105480;1279;22648;-64
2022/04/30 09:41:12;;;;;;;8.20;1.80;;;;;;;16.34;47.09;101094.53;105521;1279;22544;-64
2022/04/30 09:43:45;;;;;;;7.70;1.60;;;;;;;16.33;47.37;101091.27;101622;1279;5437277;-64
2022/04/30 09:46:18;;;;;;;9.70;2.00;;;;;;;16.40;46.99;101092.04;105623;1279;24331;-64
2022/04/30 09:54:31;;;;;;;10.40;2.00;;;;;;;16.84;45.51;101083.80;105493;1279;22507;-65
2022/04/30 09:57:07;;;;;;;7.50;1.30;;;;;;;16.94;45.39;101089.67;105588;1279;24296;-64
2022/04/30 09:59:40;;;;;;;8.80;1.70;;;;;;;17.06;44.27;101087.11;105620;1279;23018;-65
2022/04/30 10:02:11;;;;;;;10.00;1.60;;;;;;;17.11;43.55;101083.77;105634;1278;22558;-65
2022/04/30 10:04:46;;;;;;;7.90;1.40;;;;;;;17.17;43.99;101081.60;105548;1279;24252;-64
2022/04/30 10:07:21;;;;;;;6.70;1.70;;;;;;;17.27;43.74;101082.80;105455;1279;22569;-64
2022/04/30 10:10:00;;;;;;;10.30;1.30;;;;;;;17.32;43.33;101080.23;105436;1279;22607;-64
2022/04/30 10:12:37;;;;;;;6.80;1.30;;;;;;;17.32;42.26;101075.41;105427;1276;22571;-64
2022/04/30 10:15:21;;;;;;;10.60;1.70;;;;;;;17.35;42.77;101077.02;105605;1276;22523;-64
2022/04/30 10:17:57;;;;;;;8.00;1.20;;;;;;;17.42;42.12;101075.52;105666;1274;25410;-64
2022/04/30 10:20:34;;;;;;;9.40;1.40;;;;;;;17.46;41.56;101073.02;105703;1275;23850;-64
2022/04/30 10:23:07;;;;;;;13.00;1.50;;;;;;;17.52;41.92;101072.82;105738;1276;25322;-64
2022/04/30 10:25:44;;;;;;;19.40;2.20;;;;;;;17.59;41.07;101073.71;105745;1275;25307;-64
2022/04/30 10:28:22;;;;;;;9.00;1.30;;;;;;;17.62;40.95;101068.80;105759;1274;22563;-64
2022/04/30 10:31:03;;;;;;;11.40;1.40;;;;;;;17.65;40.81;101066.40;105623;1276;22560;-64
2022/04/30 10:33:36;;;;;;;8.50;1.40;;;;;;;17.69;40.21;101065.44;105766;1276;22620;-64
2022/04/30 10:36:10;;;;;;;7.30;1.30;;;;;;;17.72;40.28;101064.73;105519;1276;22598;-63
2022/04/30 10:38:43;;;;;;;12.90;1.40;;;;;;;17.77;39.86;101062.07;105593;1276;24744;-64
2022/04/30 10:41:14;;;;;;;11.70;1.70;;;;;;;17.82;39.69;101059.70;105612;1275;22579;-65
2022/04/30 10:43:46;;;;;;;9.90;1.50;;;;;;;17.83;39.13;101061.10;105621;1275;24311;-64
2022/04/30 10:46:25;;;;;;;22.60;2.30;;;;;;;17.84;39.26;101059.92;105880;1276;22791;-64
2022/04/30 10:48:57;;;;;;;7.10;1.30;;;;;;;17.86;38.90;101050.58;105670;1276;24450;-65
2022/04/30 10:51:40;;;;;;;6.00;1.10;;;;;;;17.87;38.68;101048.70;105552;1276;22635;-64
2022/04/30 10:54:13;;;;;;;14.70;2.10;;;;;;;17.88;38.00;101049.77;105737;1276;24328;-65
2022/04/30 10:56:45;;;;;;;13.50;1.30;;;;;;;17.93;38.22;101048.44;105656;1274;22541;-65
2022/04/30 10:59:26;;;;;;;17.90;2.20;;;;;;;17.95;37.74;101048.40;105693;1274;22557;-64
2022/04/30 11:01:59;;;;;;;14.20;1.60;;;;;;;17.98;37.61;101043.41;105568;1274;24274;-65
2022/04/30 11:04:30;;;;;;;16.00;1.60;;;;;;;18.02;37.55;101045.73;105643;1274;24319;-64
2022/04/30 11:07:03;;;;;;;14.00;1.80;;;;;;;18.07;37.34;101039.88;105713;1274;22560;-65
2022/04/30 11:09:43;;;;;;;10.20;1.50;;;;;;;18.10;37.23;101038.77;105642;1275;22609;-65
2022/04/30 11:12:17;;;;;;;29.50;2.90;;;;;;;18.10;37.40;101033.27;105630;1274;22579;-65
2022/04/30 11:14:49;;;;;;;43.70;4.00;;;;;;;18.15;37.65;101028.73;105593;1275;25433;-65
2022/04/30 11:17:21;;;;;;;34.10;3.20;;;;;;;18.17;36.67;101022.46;105616;1274;25430;-65
2022/04/30 11:19:55;;;;;;;9.50;1.70;;;;;;;18.15;37.15;101021.55;105587;1276;24357;-66
2022/04/30 11:22:27;;;;;;;19.10;2.20;;;;;;;18.21;37.03;101024.58;105535;1276;22569;-65
2022/04/30 11:25:00;;;;;;;10.10;1.60;;;;;;;18.21;36.77;101022.54;105802;1274;24279;-67
2022/04/30 11:27:34;;;;;;;8.00;1.60;;;;;;;18.21;36.37;101019.23;105800;1275;24236;-65
2022/04/30 11:30:08;;;;;;;8.10;1.60;;;;;;;18.13;36.04;101017.50;105502;1276;25263;-65
2022/04/30 11:32:39;;;;;;;6.40;1.40;;;;;;;18.06;35.81;101010.39;105579;1275;22554;-67
2022/04/30 11:35:12;;;;;;;9.10;1.40;;;;;;;17.97;36.57;101009.52;105592;1274;22544;-66
2022/04/30 11:37:44;;;;;;;8.00;1.40;;;;;;;18.04;36.70;101009.31;105741;1275;24267;-63
2022/04/30 11:40:16;;;;;;;6.90;1.80;;;;;;;18.08;36.50;101009.67;105543;1274;25723;-65
2022/04/30 11:42:56;;;;;;;9.90;1.50;;;;;;;18.07;36.40;101011.38;105610;1275;22612;-65
2022/04/30 11:45:29;;;;;;;9.30;1.60;;;;;;;18.08;36.36;101008.70;105845;1274;25031;-65
2022/04/30 11:48:03;;;;;;;6.40;1.40;;;;;;;18.09;36.59;101003.37;105561;1274;25356;-66
2022/04/30 11:50:35;;;;;;;12.20;2.00;;;;;;;18.15;36.76;100998.54;105568;1275;25419;-66
2022/04/30 11:53:09;;;;;;;13.70;2.10;;;;;;;18.20;36.40;100992.92;105555;1275;22540;-67
2022/04/30 11:55:42;;;;;;;47.60;6.20;;;;;;;18.14;35.86;100988.56;105679;1275;22544;-67
2022/04/30 11:58:13;;;;;;;65.60;8.20;;;;;;;18.14;36.15;100986.82;105682;1275;22559;-67
2022/04/30 12:00:44;;;;;;;26.90;3.80;;;;;;;18.20;36.23;100980.91;105596;1275;25629;-67
2022/04/30 12:03:25;;;;;;;25.70;2.90;;;;;;;18.24;35.91;100975.83;105793;1274;22541;-68
2022/04/30 12:05:58;;;;;;;24.00;2.90;;;;;;;18.27;35.92;100969.19;105644;1274;25603;-67
2022/04/30 12:08:31;;;;;;;9.60;1.50;;;;;;;18.35;35.73;100968.10;105715;1275;23610;-68
2022/04/30 12:11:04;;;;;;;24.80;2.00;;;;;;;18.38;35.81;100968.70;105603;1274;24488;-68
2022/04/30 12:13:36;;;;;;;48.70;5.10;;;;;;;18.40;35.34;100962.91;105673;1274;22540;-68
2022/04/30 12:16:08;;;;;;;35.00;2.60;;;;;;;18.39;35.35;100958.22;105752;1275;22550;-69